Latest Weather Observations for Flinders Reef

IDQ60801

Issued at 10:02 pm EST Friday 3 July 2015 (issued every 30 minutes, with the page automatically refreshed every 10 minutes)

About weather observations | Map of weather stations | Latest weather observations for QLD | Other Formats
Station Details ID: 200783 Name: FLINDERS REEF Lat: -17.72 Lon: 148.45 Height: 2.6 m
Data from the previous 72 hours. | See also: Recent months at Flinders Reef
Date/Time
EST
Temp
°C
App
Temp
°C
Dew
Point
Rel
Hum
%
Delta-T
°C
Wind Press
QNH
hPa
Press
MSL
hPa
Rain
since 9 am
mm
Dir
 
Spd
km/h
Gust
km/h
Spd
kts
Gust
kts
03/10:00pm - - - - - SE 33 39 18 21 1018.6 - -
03/09:30pm - - - - - SE 39 46 21 25 1018.5 - -
03/09:24pm - - - - - SE 37 - 20 - - 1018.4 -
03/09:00pm - - - - - SE 41 44 22 24 1018.3 - -
03/08:30pm - - - - - SE 41 46 22 25 1018.0 - -
03/08:24pm - - - - - SE 41 - 22 - - 1017.8 -
03/08:00pm - - - - - SSE 39 48 21 26 1017.6 - -
03/07:30pm - - - - - SE 39 46 21 25 1017.4 - -
03/07:24pm - - - - - SE 39 - 21 - - 1017.2 -
03/07:00pm - - - - - SE 39 46 21 25 1017.1 - -
03/06:30pm - - - - - SE 39 46 21 25 1016.9 - -
03/06:24pm - - - - - SE 39 - 21 - - 1016.7 -
03/06:00pm - - - - - SSE 39 44 21 24 1016.6 - -
03/05:30pm - - - - - SSE 39 44 21 24 1016.4 - -
03/05:24pm - - - - - SSE 39 - 21 - - 1016.2 -
03/05:00pm - - - - - SSE 41 50 22 27 1016.1 - -
03/04:30pm - - - - - SSE 44 52 24 28 1015.8 - -
03/04:24pm - - - - - SSE 46 - 25 - - 1015.6 -
03/04:00pm - - - - - SSE 44 54 24 29 1015.5 - -
03/03:30pm - - - - - SSE 46 54 25 29 1015.2 - -
03/03:24pm - - - - - SSE 44 - 24 - - 1015.2 -
03/03:00pm - - - - - SSE 43 48 23 26 1015.3 - -
03/02:30pm - - - - - SSE 39 46 21 25 1015.8 - -
03/02:24pm - - - - - SSE 39 - 21 - - 1015.7 -
03/02:00pm - - - - - SSE 41 46 22 25 1015.9 - -
03/01:30pm - - - - - SSE 39 48 21 26 1016.2 - -
03/01:24pm - - - - - SE 39 - 21 - - 1016.1 -
03/01:00pm - - - - - SE 35 43 19 23 1016.5 - -
03/12:30pm - - - - - SSE 35 41 19 22 1016.8 - -
03/12:24pm - - - - - SSE 35 - 19 - - 1016.8 -
03/12:00pm - - - - - SE 33 39 18 21 1017.2 - -
03/11:30am - - - - - SE 37 43 20 23 1017.4 - -
03/11:24am - - - - - SE 37 - 20 - - 1017.4 -
03/11:00am - - - - - SE 33 41 18 22 1017.7 - -
03/10:30am - - - - - SE 33 41 18 22 1017.9 - -
03/10:24am - - - - - SE 33 - 18 - - 1017.9 -
03/10:00am - - - - - SE 33 43 18 23 1018.0 - -
03/09:30am - - - - - SE 35 41 19 22 1018.1 - -
03/09:24am - - - - - SE 33 - 18 - - 1018.0 -
03/09:00am - - - - - SE 30 37 16 20 1018.2 - -
03/08:30am - - - - - SE 30 39 16 21 1017.8 - -
03/08:24am - - - - - SE 32 - 17 - - 1017.7 -
03/08:00am - - - - - SE 35 41 19 22 1017.6 - -
03/07:30am - - - - - SE 33 41 18 22 1017.2 - -
03/07:24am - - - - - SE 33 - 18 - - 1017.0 -
03/07:00am - - - - - SE 35 43 19 23 1016.8 - -
03/06:30am - - - - - SSE 37 44 20 24 1016.6 - -
03/06:24am - - - - - SSE 37 - 20 - - 1016.4 -
03/06:00am - - - - - SSE 35 44 19 24 1016.3 - -
03/05:30am - - - - - SSE 37 43 20 23 1016.0 - -
03/05:24am - - - - - SSE 37 - 20 - - 1015.9 -
03/05:00am - - - - - SSE 37 48 20 26 1015.8 - -
03/04:30am - - - - - SSE 35 43 19 23 1015.7 - -
03/04:24am - - - - - SSE 37 - 20 - - 1015.7 -
03/04:00am - - - - - SSE 35 43 19 23 1015.9 - -
03/03:30am - - - - - SSE 35 43 19 23 1015.9 - -
03/03:24am - - - - - SSE 35 - 19 - - 1015.9 -
03/03:00am - - - - - SSE 37 46 20 25 1016.3 - -
03/02:30am - - - - - SE 37 44 20 24 1016.5 - -
03/02:24am - - - - - SE 37 - 20 - - 1016.4 -
03/02:00am - - - - - SE 37 44 20 24 1016.6 - -
03/01:30am - - - - - SE 35 43 19 23 1016.9 - -
03/01:24am - - - - - SE 35 - 19 - - 1016.9 -
03/01:00am - - - - - SE 35 41 19 22 1017.3 - -
03/12:30am - - - - - SE 33 39 18 21 1017.5 - -
03/12:24am - - - - - SE 33 - 18 - - 1017.4 -
03/12:00am - - - - - SE 32 39 17 21 1017.6 - -
 
Date/Time
EST
Temp
°C
App
Temp
°C
Dew
Point
Rel
Hum
%
Delta-T
°C
Wind Press
QNH
hPa
Press
MSL
hPa
Rain
since 9 am
mm
Dir
 
Spd
km/h
Gust
km/h
Spd
kts
Gust
kts
02/11:30pm - - - - - SE 32 39 17 21 1017.7 - -
02/11:24pm - - - - - SSE 32 - 17 - - 1017.6 -
02/11:00pm - - - - - SSE 33 39 18 21 1018.0 - -
02/10:30pm - - - - - SE 32 39 17 21 1018.5 - -
02/10:24pm - - - - - SE 32 - 17 - - 1018.4 -
02/10:00pm - - - - - SE 30 35 16 19 1018.7 - -
02/09:30pm - - - - - SE 32 37 17 20 1018.7 - -
02/09:24pm - - - - - SE 32 - 17 - - 1018.6 -
02/09:00pm - - - - - SE 32 39 17 21 1018.6 - -
02/08:30pm - - - - - SE 35 41 19 22 1018.4 - -
02/08:24pm - - - - - SE 35 - 19 - - 1018.2 -
02/08:00pm - - - - - SSE 35 43 19 23 1018.3 - -
02/07:30pm - - - - - SE 37 43 20 23 1018.3 - -
02/07:24pm - - - - - SE 37 - 20 - - 1018.1 -
02/07:00pm - - - - - SSE 35 41 19 22 1018.1 - -
02/06:30pm - - - - - SSE 35 41 19 22 1017.8 - -
02/06:24pm - - - - - SSE 35 - 19 - - 1017.6 -
02/06:00pm - - - - - SSE 33 41 18 22 1017.6 - -
02/05:30pm - - - - - SSE 32 37 17 20 1017.4 - -
02/05:24pm - - - - - SSE 33 - 18 - - 1017.3 -
02/05:00pm - - - - - SSE 33 39 18 21 1017.4 - -
02/04:30pm - - - - - SE 33 39 18 21 1017.1 - -
02/04:24pm - - - - - SE 35 - 19 - - 1017.0 -
02/04:00pm - - - - - SE 32 39 17 21 1017.0 - -
02/03:30pm - - - - - SE 33 39 18 21 1017.0 - -
02/03:24pm - - - - - SE 33 - 18 - - 1016.9 -
02/03:00pm - - - - - SE 35 39 19 21 1017.1 - -
02/02:30pm - - - - - SE 35 43 19 23 1017.2 - -
02/02:24pm - - - - - SE 33 - 18 - - 1017.1 -
02/02:00pm - - - - - SE 37 44 20 24 1017.3 - -
02/01:30pm - - - - - SE 39 44 21 24 1017.4 - -
02/01:24pm - - - - - SE 37 - 20 - - 1017.3 -
02/01:00pm - - - - - SE 37 43 20 23 1017.9 - -
02/12:30pm - - - - - SE 37 43 20 23 1018.7 - -
02/12:24pm - - - - - SSE 37 - 20 - - 1018.6 -
02/12:00pm - - - - - SE 37 43 20 23 1018.9 - -
02/11:30am - - - - - SE 41 46 22 25 1019.1 - -
02/11:24am - - - - - SE 41 - 22 - - 1019.0 -
02/11:00am - - - - - SE 39 44 21 24 1019.2 - -
02/10:30am - - - - - SE 39 44 21 24 1019.6 - -
02/10:24am - - - - - SE 39 - 21 - - 1019.5 -
02/10:00am - - - - - SE 39 46 21 25 1019.8 - -
02/09:30am - - - - - SE 35 43 19 23 1020.0 - -
02/09:24am - - - - - SE 37 - 20 - - 1019.9 -
02/09:00am - - - - - SE 39 46 21 25 1020.0 - -
02/08:30am - - - - - SE 37 44 20 24 1019.7 - -
02/08:24am - - - - - SE 41 - 22 - - 1019.5 -
02/08:00am - - - - - SE 39 46 21 25 1019.4 - -
02/07:30am - - - - - ESE 39 48 21 26 1019.1 - -
02/07:24am - - - - - ESE 41 - 22 - - 1018.9 -
02/07:00am - - - - - SE 37 43 20 23 1018.7 - -
02/06:30am - - - - - SE 41 46 22 25 1018.3 - -
02/06:24am - - - - - SE 39 - 21 - - 1018.1 -
02/06:00am - - - - - SE 37 43 20 23 1018.1 - -
02/05:30am - - - - - SE 33 39 18 21 1018.0 - -
02/05:24am - - - - - SE 35 - 19 - - 1017.9 -
02/05:00am - - - - - SE 39 46 21 25 1017.6 - -
02/04:30am - - - - - SE 43 48 23 26 1017.4 - -
02/04:24am - - - - - SE 39 - 21 - - 1017.3 -
02/04:00am - - - - - SE 37 48 20 26 1017.3 - -
02/03:30am - - - - - SE 39 46 21 25 1017.4 - -
02/03:24am - - - - - SE 41 - 22 - - 1017.3 -
02/03:00am - - - - - SE 41 46 22 25 1017.5 - -
02/02:30am - - - - - SE 39 46 21 25 1017.9 - -
02/02:24am - - - - - SE 39 - 21 - - 1017.8 -
02/02:00am - - - - - SE 41 46 22 25 1018.3 - -
02/01:30am - - - - - SE 41 48 22 26 1018.6 - -
02/01:24am - - - - - SE 41 - 22 - - 1018.5 -
02/01:00am - - - - - SSE 39 46 21 25 1018.8 - -
02/12:30am - - - - - SE 39 48 21 26 1019.1 - -
02/12:24am - - - - - SE 39 - 21 - - 1019.0 -
02/12:00am - - - - - SE 39 48 21 26 1019.3 - -
 
Date/Time
EST
Temp
°C
App
Temp
°C
Dew
Point
Rel
Hum
%
Delta-T
°C
Wind Press
QNH
hPa
Press
MSL
hPa
Rain
since 9 am
mm
Dir
 
Spd
km/h
Gust
km/h
Spd
kts
Gust
kts
01/11:30pm - - - - - SE 37 44 20 24 1019.5 - -
01/11:24pm - - - - - SE 39 - 21 - - 1019.4 -
01/11:00pm - - - - - SE 39 44 21 24 1019.7 - -
01/10:30pm - - - - - SE 39 44 21 24 1019.9 - -
01/10:24pm - - - - - SE 39 - 21 - - 1019.8 -
01/10:00pm - - - - - SE 39 46 21 25 1019.9 - -
01/09:30pm - - - - - SE 43 48 23 26 1019.8 - -
01/09:24pm - - - - - SE 41 - 22 - - 1019.6 -
01/09:00pm - - - - - SE 41 46 22 25 1019.6 - -
01/08:30pm - - - - - SE 43 50 23 27 1019.5 - -
01/08:24pm - - - - - SE 41 - 22 - - 1019.3 -
01/08:00pm - - - - - SE 41 48 22 26 1019.3 - -
01/07:30pm - - - - - SE 41 46 22 25 1019.0 - -
01/07:24pm - - - - - SE 39 - 21 - - 1018.9 -
01/07:00pm - - - - - SE 41 48 22 26 1018.7 - -
01/06:30pm - - - - - SSE 37 50 20 27 1018.6 - -
01/06:24pm - - - - - SE 37 - 20 - - 1018.4 -
01/06:00pm - - - - - SSE 37 44 20 24 1018.2 - -
01/05:30pm - - - - - SE 39 46 21 25 1017.9 - -
01/05:24pm - - - - - SE 41 - 22 - - 1017.8 -
01/05:00pm - - - - - SE 41 46 22 25 1017.5 - -
01/04:30pm - - - - - SE 39 46 21 25 1017.3 - -
01/04:24pm - - - - - SSE 41 - 22 - - 1017.1 -
01/04:00pm - - - - - SE 35 43 19 23 1017.1 - -
01/03:30pm - - - - - SE 33 39 18 21 1017.3 - -
01/03:24pm - - - - - SE 33 - 18 - - 1017.2 -
01/03:00pm - - - - - SE 35 41 19 22 1017.5 - -
01/02:30pm - - - - - SE 32 37 17 20 1017.7 - -
01/02:24pm - - - - - SE 33 - 18 - - 1017.6 -
01/02:00pm - - - - - SSE 33 39 18 21 1017.8 - -
01/01:30pm - - - - - SSE 33 41 18 22 1018.1 - -
01/01:24pm - - - - - SSE 33 - 18 - - 1018.1 -
01/01:00pm - - - - - SSE 35 39 19 21 1018.4 - -
01/12:30pm - - - - - SSE 35 43 19 23 1018.8 - -
01/12:24pm - - - - - SSE 35 - 19 - - 1018.8 -
01/12:00pm - - - - - SSE 33 41 18 22 1019.1 - -
01/11:30am - - - - - SSE 37 43 20 23 1019.5 - -
01/11:24am - - - - - SSE 37 - 20 - - 1019.5 -
01/11:00am - - - - - SSE 37 46 20 25 1019.8 - -
01/10:30am - - - - - SSE 37 43 20 23 1020.0 - -
01/10:24am - - - - - SSE 35 - 19 - - 1019.9 -
01/10:00am - - - - - SE 37 43 20 23 1020.2 - -
01/09:30am - - - - - SE 39 44 21 24 1020.3 - -
01/09:24am - - - - - SE 39 - 21 - - 1020.2 -
01/09:00am - - - - - SE 37 43 20 23 1020.2 - -
01/08:30am - - - - - SE 37 43 20 23 1020.1 - -
01/08:24am - - - - - SE 39 - 21 - - 1020.0 -
01/08:00am - - - - - SSE 39 46 21 25 1019.9 - -
01/07:30am - - - - - SSE 37 41 20 22 1019.6 - -
01/07:24am - - - - - SSE 37 - 20 - - 1019.5 -
01/07:00am - - - - - SE 41 46 22 25 1019.4 - -
01/06:30am - - - - - SE 41 48 22 26 1019.2 - -
01/06:24am - - - - - SE 39 - 21 - - 1019.0 -
01/06:00am - - - - - SSE 41 46 22 25 1019.2 - -
01/05:30am - - - - - SSE 41 46 22 25 1018.8 - -
01/05:24am - - - - - SSE 39 - 21 - - 1018.7 -
01/05:00am - - - - - SE 39 43 21 23 1018.7 - -
01/04:30am - - - - - SE 43 48 23 26 1018.6 - -
01/04:24am - - - - - SE 41 - 22 - - 1018.5 -
01/04:00am - - - - - SE 41 50 22 27 1018.5 - -
01/03:30am - - - - - SE 39 46 21 25 1018.5 - -
01/03:24am - - - - - SE 41 - 22 - - 1018.3 -
01/03:00am - - - - - SE 41 46 22 25 1018.4 - -
01/02:30am - - - - - SE 39 44 21 24 1018.5 - -
01/02:24am - - - - - SE 39 - 21 - - 1018.4 -
01/02:00am - - - - - SE 39 46 21 25 1018.7 - -
01/01:30am - - - - - ESE 37 44 20 24 1019.0 - -
01/01:24am - - - - - ESE 39 - 21 - - 1018.9 -
01/01:00am - - - - - ESE 37 44 20 24 1019.2 - -
01/12:30am - - - - - ESE 37 44 20 24 1019.2 - -
01/12:24am - - - - - ESE 37 - 20 - - 1019.2 -
01/12:00am - - - - - ESE 39 44 21 24 1019.3 - -
 
Date/Time
EST
Temp
°C
App
Temp
°C
Dew
Point
Rel
Hum
%
Delta-T
°C
Wind Press
QNH
hPa
Press
MSL
hPa
Rain
since 9 am
mm
Dir
 
Spd
km/h
Gust
km/h
Spd
kts
Gust
kts
30/11:30pm - - - - - ESE 37 43 20 23 1019.4 - -
30/11:24pm - - - - - ESE 37 - 20 - - 1019.4 -
30/11:00pm - - - - - ESE 39 44 21 24 1019.7 - -
30/10:30pm - - - - - ESE 41 50 22 27 1019.7 - -
30/10:24pm - - - - - ESE 41 - 22 - - 1019.6 -

Other Formats:

Comma delimited format used in spreadsheet applications
http://www.bom.gov.au/fwo/IDQ60801/IDQ60801.94290.axf

JavaScript Object Notation format (JSON) in row-major order
http://www.bom.gov.au/fwo/IDQ60801/IDQ60801.94290.json